Time;durP1;ratioP1;P1;durP2;ratioP2;P2;SDS_P1;SDS_P2;PMS_P1;PMS_P2;Temp;Humidity;BMP_temperature;BMP_pressure;BME280_temperature;BME280_humidity;BME280_pressure;Samples;Min_cycle;Max_cycle;Signal;HPM_P1;HPM_P2
2022/04/01 00:00:24;;;;;;;;;;;7.10;99.90;;;;;;4273491;33;44758;-84
2022/04/01 00:02:51;;;;;;;;;;;7.10;99.90;;;;;;4260739;33;43992;-83
2022/04/01 00:05:18;;;;;;;;;;;7.00;99.90;;;;;;4273739;33;43199;-84
2022/04/01 00:07:46;;;;;;;;;;;7.10;99.90;;;;;;4273836;33;45907;-84
2022/04/01 00:10:13;;;;;;;;;;;7.00;99.90;;;;;;4260949;33;43867;-83
2022/04/01 00:12:40;;;;;;;;;;;7.00;99.90;;;;;;4261019;33;42795;-83
2022/04/01 00:15:08;;;;;;;;;;;7.00;99.90;;;;;;4273676;33;42754;-83
2022/04/01 00:17:36;;;;;;;;;;;7.00;99.90;;;;;;4273558;33;44118;-84
2022/04/01 00:20:03;;;;;;;;;;;7.10;99.90;;;;;;4272306;33;44093;-83
2022/04/01 00:22:30;;;;;;;;;;;7.00;99.90;;;;;;4273062;33;44848;-84
2022/04/01 00:24:58;;;;;;;;;;;7.00;99.90;;;;;;4273371;33;43507;-84
2022/04/01 00:27:25;;;;;;;;;;;7.00;99.90;;;;;;4273485;33;42352;-84
2022/04/01 00:29:52;;;;;;;;;;;7.00;99.90;;;;;;4260411;33;44951;-84
2022/04/01 00:32:21;;;;;;;;;;;7.00;99.90;;;;;;4273485;33;44651;-83
2022/04/01 00:34:49;;;;;;;;;;;7.00;99.90;;;;;;4260328;33;43273;-84
2022/04/01 00:37:17;;;;;;;;;;;7.00;99.80;;;;;;4260486;33;44946;-84
2022/04/01 00:39:44;;;;;;;;;;;7.00;99.80;;;;;;4260596;33;44006;-84
2022/04/01 00:42:12;;;;;;;;;;;6.90;99.80;;;;;;4273317;33;43845;-84
2022/04/01 00:44:39;;;;;;;;;;;7.00;99.60;;;;;;4260487;33;43454;-84
2022/04/01 00:47:11;;;;;;;;;;;6.90;99.70;;;;;;4260493;33;43502;-83
2022/04/01 00:49:38;;;;;;;;;;;6.90;99.60;;;;;;4260697;33;44438;-83
2022/04/01 00:52:10;;;;;;;;;;;6.90;99.50;;;;;;4260626;33;44249;-84
2022/04/01 00:54:37;;;;;;;;;;;6.90;99.40;;;;;;4272854;33;43473;-84
2022/04/01 00:57:05;;;;;;;;;;;6.90;99.30;;;;;;4273183;33;42783;-84
2022/04/01 00:59:32;;;;;;;;;;;6.90;99.40;;;;;;4272834;33;43935;-84
2022/04/01 01:02:00;;;;;;;;;;;6.90;99.50;;;;;;4259991;33;43236;-83
2022/04/01 01:04:27;;;;;;;;;;;6.90;99.70;;;;;;4272853;33;43124;-83
2022/04/01 01:06:56;;;;;;;;;;;6.90;99.70;;;;;;4260384;33;45063;-84
2022/04/01 01:09:23;;;;;;;;;;;6.90;99.80;;;;;;4272832;33;43289;-84
2022/04/01 01:11:52;;;;;;;;;;;6.90;99.90;;;;;;4272790;33;44189;-83
2022/04/01 01:14:24;;;;;;;;;;;6.80;99.90;;;;;;4272542;33;43026;-84
2022/04/01 01:16:51;;;;;;;;;;;6.80;99.80;;;;;;4272955;33;44207;-84
2022/04/01 01:19:18;;;;;;;;;;;6.80;99.70;;;;;;4260423;33;44191;-85
2022/04/01 01:21:49;;;;;;;;;;;6.80;99.80;;;;;;4260174;33;43614;-84
2022/04/01 01:24:16;;;;;;;;;;;6.80;99.90;;;;;;4259538;33;44437;-83
2022/04/01 01:26:48;;;;;;;;;;;6.80;99.60;;;;;;4260038;33;43882;-84
2022/04/01 01:29:22;;;;;;;;;;;6.80;99.60;;;;;;4259794;33;43261;-83
2022/04/01 01:31:49;;;;;;;;;;;6.70;99.70;;;;;;4273023;33;45798;-83
2022/04/01 01:34:17;;;;;;;;;;;6.70;99.70;;;;;;4260115;33;44205;-83
2022/04/01 01:36:44;;;;;;;;;;;6.70;99.80;;;;;;4272813;33;43603;-84
2022/04/01 01:39:11;;;;;;;;;;;6.70;99.90;;;;;;4272932;33;44119;-84
2022/04/01 01:41:38;;;;;;;;;;;6.70;99.90;;;;;;4259596;33;42870;-84
2022/04/01 01:44:05;;;;;;;;;;;6.70;99.90;;;;;;4259803;33;43052;-84
2022/04/01 01:46:34;;;;;;;;;;;6.70;99.90;;;;;;4259887;33;42502;-84
2022/04/01 01:49:01;;;;;;;;;;;6.60;99.90;;;;;;4259472;33;43167;-84
2022/04/01 01:57:00;;;;;;;;;;;6.70;99.90;;;;;;4272469;33;44310;-84
2022/04/01 01:59:27;;;;;;;;;;;6.60;99.90;;;;;;4259721;33;43511;-83
2022/04/01 02:01:54;;;;;;;;;;;6.60;99.90;;;;;;4259380;33;43796;-84
2022/04/01 02:04:24;;;;;;;;;;;6.60;99.90;;;;;;4272158;33;42674;-83
2022/04/01 02:06:52;;;;;;;;;;;6.70;99.90;;;;;;4259896;33;45871;-83
2022/04/01 02:09:19;;;;;;;;;;;6.60;99.90;;;;;;4272721;33;43582;-84
2022/04/01 02:11:46;;;;;;;;;;;6.60;99.90;;;;;;4259830;33;44269;-84
2022/04/01 02:14:14;;;;;;;;;;;6.60;99.90;;;;;;4272141;33;43297;-83
2022/04/01 02:16:43;;;;;;;;;;;6.60;99.90;;;;;;4272383;33;46332;-83
2022/04/01 02:19:20;;;;;;;;;;;6.60;99.90;;;;;;4259325;33;46160;-83
2022/04/01 02:21:48;;;;;;;;;;;6.60;99.90;;;;;;4261250;33;44004;-83
2022/04/01 02:24:17;;;;;;;;;;;6.60;99.90;;;;;;4261943;33;46141;-83
2022/04/01 02:26:47;;;;;;;;;;;6.60;99.90;;;;;;4273602;33;43403;-83
2022/04/01 02:29:21;;;;;;;;;;;6.60;99.90;;;;;;4262463;33;43137;-84
2022/04/01 02:31:50;;;;;;;;;;;6.60;99.80;;;;;;4262282;33;43224;-84
2022/04/01 02:34:21;;;;;;;;;;;6.60;99.60;;;;;;4274730;33;43939;-83
2022/04/01 02:36:48;;;;;;;;;;;6.60;99.50;;;;;;4275114;33;43799;-83
2022/04/01 02:39:15;;;;;;;;;;;6.70;99.50;;;;;;4262299;33;42609;-83
2022/04/01 02:41:43;;;;;;;;;;;6.60;99.50;;;;;;4262377;33;41386;-83
2022/04/01 02:44:12;;;;;;;;;;;6.60;99.60;;;;;;4274656;33;45762;-83
2022/04/01 02:46:43;;;;;;;;;;;6.60;99.50;;;;;;4274489;33;44071;-83
2022/04/01 02:49:12;;;;;;;;;;;6.60;99.40;;;;;;4262097;33;43279;-83
2022/04/01 02:51:40;;;;;;;;;;;6.60;99.70;;;;;;4262203;33;44877;-83
2022/04/01 02:54:08;;;;;;;;;;;6.60;99.80;;;;;;4261969;33;44271;-83
2022/04/01 02:56:36;;;;;;;;;;;6.60;99.90;;;;;;4274614;33;44070;-83
2022/04/01 02:59:07;;;;;;;;;;;6.60;99.60;;;;;;4262242;33;45477;-83
2022/04/01 03:01:38;;;;;;;;;;;6.60;99.50;;;;;;4274664;33;45712;-84
2022/04/01 03:04:10;;;;;;;;;;;6.60;99.60;;;;;;4262159;33;44313;-83
2022/04/01 03:06:43;;;;;;;;;;;6.60;99.70;;;;;;4274276;33;43852;-84
2022/04/01 03:09:10;;;;;;;;;;;6.60;99.50;;;;;;4261679;33;44022;-82
2022/04/01 03:11:38;;;;;;;;;;;6.60;99.60;;;;;;4261611;33;43272;-82
2022/04/01 03:14:06;;;;;;;;;;;6.60;99.50;;;;;;4261564;33;44183;-83
2022/04/01 03:16:34;;;;;;;;;;;6.60;99.70;;;;;;4274545;33;43272;-83
2022/04/01 03:19:01;;;;;;;;;;;6.60;99.60;;;;;;4274503;33;43616;-82
2022/04/01 03:21:29;;;;;;;;;;;6.60;99.60;;;;;;4261702;33;45826;-82
2022/04/01 03:23:56;;;;;;;;;;;6.60;99.50;;;;;;4274065;33;42981;-82
2022/04/01 03:26:23;;;;;;;;;;;6.60;99.50;;;;;;4272966;33;43373;-83
2022/04/01 03:28:50;;;;;;;;;;;6.60;99.40;;;;;;4273200;33;45094;-83
2022/04/01 03:31:18;;;;;;;;;;;6.60;99.50;;;;;;4261656;33;43825;-83
2022/04/01 03:33:45;;;;;;;;;;;6.60;99.40;;;;;;4261204;33;43372;-82
2022/04/01 03:36:13;;;;;;;;;;;6.60;99.50;;;;;;4273884;33;44916;-83
2022/04/01 03:38:40;;;;;;;;;;;6.60;99.40;;;;;;4261191;33;44004;-82
2022/04/01 03:41:08;;;;;;;;;;;6.60;99.30;;;;;;4261353;33;44149;-82
2022/04/01 03:43:37;;;;;;;;;;;6.60;99.20;;;;;;4261478;33;44308;-82
2022/04/01 03:46:09;;;;;;;;;;;6.60;99.20;;;;;;4261264;33;44808;-82
2022/04/01 03:49:10;;;;;;;;;;;6.60;99.40;;;;;;4261442;33;44053;-83
2022/04/01 03:51:38;;;;;;;;;;;6.60;99.40;;;;;;4250040;33;42678;-83
2022/04/01 03:54:05;;;;;;;;;;;6.60;99.30;;;;;;4273562;33;43498;-83
2022/04/01 03:56:34;;;;;;;;;;;6.60;99.30;;;;;;4273865;33;43195;-82
2022/04/01 03:59:02;;;;;;;;;;;6.60;99.30;;;;;;4261437;33;43946;-83
2022/04/01 04:01:29;;;;;;;;;;;6.60;99.10;;;;;;4273395;33;44093;-83
2022/04/01 04:03:57;;;;;;;;;;;6.60;99.10;;;;;;4261078;33;44203;-82
2022/04/01 04:06:25;;;;;;;;;;;6.60;99.10;;;;;;4260928;33;44180;-82
2022/04/01 04:08:56;;;;;;;;;;;6.60;99.00;;;;;;4273777;33;42774;-83
2022/04/01 04:11:25;;;;;;;;;;;6.60;99.10;;;;;;4260681;33;43495;-83
2022/04/01 04:13:53;;;;;;;;;;;6.60;99.00;;;;;;4260696;33;42853;-82
2022/04/01 04:16:34;;;;;;;;;;;6.60;98.90;;;;;;4260882;33;44905;-83
2022/04/01 04:19:04;;;;;;;;;;;6.50;98.80;;;;;;4261211;33;43935;-83
2022/04/01 04:21:36;;;;;;;;;;;6.50;98.70;;;;;;4273307;33;43901;-83
2022/04/01 04:24:06;;;;;;;;;;;6.50;98.80;;;;;;4260853;33;42711;-83
2022/04/01 04:26:37;;;;;;;;;;;6.50;98.80;;;;;;4260459;33;42639;-83
2022/04/01 04:29:08;;;;;;;;;;;6.50;98.70;;;;;;4273436;33;43820;-83
2022/04/01 04:31:36;;;;;;;;;;;6.40;98.80;;;;;;4260717;33;43556;-85
2022/04/01 04:34:07;;;;;;;;;;;6.40;98.50;;;;;;4260865;33;43068;-85
2022/04/01 04:36:38;;;;;;;;;;;6.50;98.70;;;;;;4273511;33;43486;-86
2022/04/01 04:39:06;;;;;;;;;;;6.40;98.40;;;;;;4260900;33;43544;-86
2022/04/01 04:41:34;;;;;;;;;;;6.30;98.40;;;;;;4260241;33;44290;-86
2022/04/01 04:44:01;;;;;;;;;;;6.30;98.50;;;;;;4273182;33;43215;-86
2022/04/01 04:46:30;;;;;;;;;;;6.30;98.40;;;;;;4272705;33;44288;-86
2022/04/01 04:48:59;;;;;;;;;;;6.20;98.80;;;;;;4260690;33;43988;-86
2022/04/01 04:51:26;;;;;;;;;;;6.30;98.50;;;;;;4273402;33;42941;-86
2022/04/01 04:53:54;;;;;;;;;;;6.20;98.30;;;;;;4272870;33;42750;-86
2022/04/01 04:56:24;;;;;;;;;;;6.20;98.40;;;;;;4272813;33;42275;-86
2022/04/01 04:58:53;;;;;;;;;;;6.20;98.40;;;;;;4260017;33;44044;-86
2022/04/01 05:01:34;;;;;;;;;;;6.20;98.40;;;;;;4272540;33;42762;-86
2022/04/01 05:04:17;;;;;;;;;;;6.10;98.10;;;;;;4273320;33;43225;-86
2022/04/01 05:06:50;;;;;;;;;;;6.10;98.30;;;;;;4260492;33;45779;-85
2022/04/01 05:09:23;;;;;;;;;;;6.10;98.30;;;;;;4272663;33;43911;-85
2022/04/01 05:12:03;;;;;;;;;;;6.10;98.30;;;;;;4260502;33;43861;-85
2022/04/01 05:14:40;;;;;;;;;;;6.10;98.10;;;;;;4272797;33;43779;-85
2022/04/01 05:17:14;;;;;;;;;;;6.00;98.50;;;;;;4273126;33;43898;-86
2022/04/01 05:19:47;;;;;;;;;;;6.00;98.30;;;;;;4273117;33;43886;-85
2022/04/01 05:22:15;;;;;;;;;;;6.00;98.00;;;;;;4260396;33;43307;-86
2022/04/01 05:24:53;;;;;;;;;;;5.90;98.20;;;;;;4260240;33;44200;-86
2022/04/01 05:27:28;;;;;;;;;;;5.90;98.20;;;;;;4260034;33;44236;-85
2022/04/01 05:30:02;;;;;;;;;;;5.90;98.10;;;;;;4259746;33;44014;-85
2022/04/01 05:32:36;;;;;;;;;;;5.90;98.20;;;;;;4272995;33;43209;-85
2022/04/01 05:35:04;;;;;;;;;;;5.90;98.20;;;;;;4260304;33;43755;-86
2022/04/01 05:37:31;;;;;;;;;;;5.80;98.30;;;;;;4260035;33;43826;-85
2022/04/01 05:40:00;;;;;;;;;;;5.80;98.20;;;;;;4272294;33;43856;-85
2022/04/01 05:42:32;;;;;;;;;;;5.80;98.20;;;;;;4273053;33;20669;-85
2022/04/01 05:45:01;;;;;;;;;;;5.80;98.20;;;;;;4272334;33;43052;-85
2022/04/01 05:47:31;;;;;;;;;;;5.70;98.10;;;;;;4272554;33;43264;-85
2022/04/01 05:49:59;;;;;;;;;;;5.70;98.30;;;;;;4272671;33;42605;-85
2022/04/01 05:52:28;;;;;;;;;;;5.70;98.30;;;;;;4272367;33;44005;-85
2022/04/01 05:54:56;;;;;;;;;;;5.70;98.20;;;;;;4259633;33;43874;-84
2022/04/01 05:57:23;;;;;;;;;;;5.70;98.30;;;;;;4276120;33;43222;-85
2022/04/01 05:59:50;;;;;;;;;;;5.70;98.20;;;;;;4264764;33;44092;-85
2022/04/01 06:02:17;;;;;;;;;;;5.60;98.20;;;;;;4276818;33;44791;-85
2022/04/01 06:04:54;;;;;;;;;;;5.60;98.20;;;;;;4264285;33;44224;-84
2022/04/01 06:07:33;;;;;;;;;;;5.60;98.30;;;;;;4277143;33;42866;-85
2022/04/01 06:10:05;;;;;;;;;;;5.70;98.20;;;;;;4264218;33;44066;-85
2022/04/01 06:12:32;;;;;;;;;;;5.60;98.00;;;;;;4277256;33;34596;-85
2022/04/01 06:14:59;;;;;;;;;;;5.60;98.00;;;;;;4277381;33;44049;-85
2022/04/01 06:17:42;;;;;;;;;;;5.60;98.00;;;;;;4277691;33;44216;-85
2022/04/01 06:20:10;;;;;;;;;;;5.50;98.10;;;;;;4277642;33;44271;-85
2022/04/01 06:22:45;;;;;;;;;;;5.50;98.10;;;;;;4264165;33;43441;-84
2022/04/01 06:25:17;;;;;;;;;;;5.50;98.20;;;;;;4277357;33;45154;-85
2022/04/01 06:27:49;;;;;;;;;;;5.50;98.10;;;;;;4264150;33;43818;-85
2022/04/01 06:30:17;;;;;;;;;;;5.50;98.10;;;;;;4264403;33;44388;-85
2022/04/01 06:32:47;;;;;;;;;;;5.50;98.20;;;;;;4264021;33;44952;-85
2022/04/01 06:35:18;;;;;;;;;;;5.50;98.10;;;;;;4264080;33;44080;-85
2022/04/01 06:37:57;;;;;;;;;;;5.50;98.20;;;;;;4264046;33;43141;-85
2022/04/01 06:40:27;;;;;;;;;;;5.50;98.20;;;;;;4264226;33;42893;-85
2022/04/01 06:42:54;;;;;;;;;;;5.50;98.20;;;;;;4264185;33;42931;-84
2022/04/01 06:45:24;;;;;;;;;;;5.50;98.30;;;;;;4277230;33;44097;-85
2022/04/01 06:47:52;;;;;;;;;;;5.50;98.20;;;;;;4264245;33;43475;-85
2022/04/01 06:50:20;;;;;;;;;;;5.50;98.30;;;;;;4276707;33;43507;-84
2022/04/01 06:52:48;;;;;;;;;;;5.50;98.30;;;;;;4263993;33;42882;-85
2022/04/01 06:55:20;;;;;;;;;;;5.50;98.30;;;;;;4277257;33;43774;-85
2022/04/01 06:57:47;;;;;;;;;;;5.50;98.40;;;;;;4263759;33;43935;-85
2022/04/01 07:00:15;;;;;;;;;;;5.50;98.30;;;;;;4264109;33;42572;-85
2022/04/01 07:02:42;;;;;;;;;;;5.60;98.30;;;;;;4263765;33;43973;-85
2022/04/01 07:05:10;;;;;;;;;;;5.60;98.20;;;;;;4277017;33;44197;-85
2022/04/01 07:07:39;;;;;;;;;;;5.50;98.20;;;;;;4275133;33;43948;-85
2022/04/01 07:10:07;;;;;;;;;;;5.60;98.20;;;;;;4261950;33;43682;-85
2022/04/01 07:12:34;;;;;;;;;;;5.60;98.20;;;;;;4274578;33;43501;-84
2022/04/01 07:15:01;;;;;;;;;;;5.60;98.10;;;;;;4262668;33;19995;-85
2022/04/01 07:17:28;;;;;;;;;;;5.50;98.20;;;;;;4261810;33;42961;-85
2022/04/01 07:19:55;;;;;;;;;;;5.60;98.20;;;;;;4274074;33;42861;-85
2022/04/01 07:22:22;;;;;;;;;;;5.60;98.10;;;;;;4274561;33;45570;-85
2022/04/01 07:24:49;;;;;;;;;;;5.50;98.00;;;;;;4274643;33;43054;-85
2022/04/01 07:27:17;;;;;;;;;;;5.50;97.90;;;;;;4261300;33;44064;-85
2022/04/01 07:29:44;;;;;;;;;;;5.50;98.00;;;;;;4261827;33;43952;-84
2022/04/01 07:32:29;;;;;;;;;;;5.40;97.90;;;;;;4274067;33;43960;-85
2022/04/01 07:34:57;;;;;;;;;;;5.40;97.90;;;;;;4274214;33;44607;-85
2022/04/01 07:37:25;;;;;;;;;;;5.40;97.90;;;;;;4261196;33;43893;-85
2022/04/01 07:40:13;;;;;;;;;;;5.30;97.90;;;;;;4274308;33;46219;-86
2022/04/01 07:42:41;;;;;;;;;;;5.30;97.90;;;;;;4273861;33;43273;-86
2022/04/01 07:45:08;;;;;;;;;;;5.20;97.90;;;;;;4274582;33;20025;-86
2022/04/01 07:47:35;;;;;;;;;;;5.20;97.80;;;;;;4274160;33;44219;-86
2022/04/01 07:50:04;;;;;;;;;;;5.20;97.80;;;;;;4274429;33;43186;-86
2022/04/01 07:52:32;;;;;;;;;;;5.20;97.90;;;;;;4273806;33;44747;-86
2022/04/01 07:54:59;;;;;;;;;;;5.20;98.00;;;;;;4261388;33;43306;-86
2022/04/01 07:57:26;;;;;;;;;;;5.20;98.00;;;;;;4261027;33;42728;-86
2022/04/01 07:59:53;;;;;;;;;;;5.20;98.00;;;;;;4274182;33;27403;-86
2022/04/01 08:02:20;;;;;;;;;;;5.20;98.00;;;;;;4273890;33;43327;-86
2022/04/01 08:04:47;;;;;;;;;;;5.20;98.00;;;;;;4260994;33;43905;-86
2022/04/01 08:07:15;;;;;;;;;;;5.20;98.00;;;;;;4261083;33;44424;-86
2022/04/01 08:09:43;;;;;;;;;;;5.20;98.10;;;;;;4273982;33;43929;-85
2022/04/01 08:12:10;;;;;;;;;;;5.20;97.90;;;;;;4260772;33;43186;-86
2022/04/01 08:14:39;;;;;;;;;;;5.20;97.80;;;;;;4260738;33;42990;-85
2022/04/01 08:17:06;;;;;;;;;;;5.20;97.90;;;;;;4273846;33;43466;-86
2022/04/01 08:19:34;;;;;;;;;;;5.20;98.00;;;;;;4261176;33;43906;-86
2022/04/01 08:22:01;;;;;;;;;;;5.20;97.90;;;;;;4261016;33;44139;-86
2022/04/01 08:24:28;;;;;;;;;;;5.10;97.80;;;;;;4272307;33;43288;-85
2022/04/01 08:26:57;;;;;;;;;;;5.20;97.90;;;;;;4272087;33;45708;-86
2022/04/01 08:29:26;;;;;;;;;;;5.10;97.80;;;;;;4272521;33;45073;-86
2022/04/01 08:31:53;;;;;;;;;;;5.10;97.80;;;;;;4273353;33;43272;-85
2022/04/01 08:34:21;;;;;;;;;;;5.10;97.80;;;;;;4260727;33;43213;-85
2022/04/01 08:36:48;;;;;;;;;;;5.10;97.80;;;;;;4260360;33;44783;-85
2022/04/01 08:39:15;;;;;;;;;;;5.10;97.80;;;;;;4271873;33;43476;-85
2022/04/01 08:41:42;;;;;;;;;;;5.10;97.80;;;;;;4260230;33;44930;-85
2022/04/01 08:44:09;;;;;;;;;;;5.10;97.90;;;;;;4272953;33;43787;-85
2022/04/01 08:46:36;;;;;;;;;;;5.20;97.80;;;;;;4273248;33;43814;-85
2022/04/01 08:49:06;;;;;;;;;;;5.20;97.80;;;;;;4260251;33;43795;-85
2022/04/01 08:51:34;;;;;;;;;;;5.10;97.70;;;;;;4273340;33;44240;-85
2022/04/01 08:54:02;;;;;;;;;;;5.10;97.80;;;;;;4260562;33;43374;-86
2022/04/01 08:56:29;;;;;;;;;;;5.10;97.80;;;;;;4272825;33;44203;-85
2022/04/01 08:59:08;;;;;;;;;;;5.10;97.80;;;;;;4273037;33;43733;-85
2022/04/01 09:01:42;;;;;;;;;;;5.10;97.70;;;;;;4272832;33;42889;-85
2022/04/01 09:04:19;;;;;;;;;;;5.00;97.70;;;;;;4273187;33;44224;-85
2022/04/01 09:06:47;;;;;;;;;;;5.10;97.90;;;;;;4272905;33;44023;-85
2022/04/01 09:09:24;;;;;;;;;;;5.10;97.80;;;;;;4259839;33;44783;-85
2022/04/01 09:12:08;;;;;;;;;;;5.10;97.70;;;;;;4260525;33;44188;-85
2022/04/01 09:14:36;;;;;;;;;;;5.10;97.60;;;;;;4272590;33;43366;-85
2022/04/01 09:17:07;;;;;;;;;;;5.10;97.70;;;;;;4259803;33;43521;-85
2022/04/01 09:19:35;;;;;;;;;;;5.10;97.70;;;;;;4260183;33;44333;-85
2022/04/01 09:22:23;;;;;;;;;;;5.10;97.60;;;;;;4272593;33;43935;-85
2022/04/01 09:24:54;;;;;;;;;;;5.10;97.70;;;;;;4260244;33;44280;-85
2022/04/01 09:27:40;;;;;;;;;;;5.00;97.90;;;;;;4259619;33;44393;-85
2022/04/01 09:30:09;;;;;;;;;;;5.10;97.70;;;;;;4272550;33;42905;-85
2022/04/01 09:32:37;;;;;;;;;;;5.10;97.70;;;;;;4259729;33;44177;-84
2022/04/01 09:35:05;;;;;;;;;;;5.10;97.70;;;;;;4272657;33;44161;-85
2022/04/01 09:37:43;;;;;;;;;;;5.00;97.60;;;;;;4272339;33;43283;-85
2022/04/01 09:40:11;;;;;;;;;;;5.10;97.70;;;;;;4272298;33;43338;-85
2022/04/01 09:42:38;;;;;;;;;;;5.10;97.60;;;;;;4272437;33;43858;-85
2022/04/01 09:45:06;;;;;;;;;;;5.10;97.60;;;;;;4272740;33;44640;-85
2022/04/01 09:47:35;;;;;;;;;;;5.10;97.60;;;;;;4271667;33;43551;-85
2022/04/01 09:50:09;;;;;;;;;;;5.10;97.50;;;;;;4259975;33;44011;-85
2022/04/01 09:52:36;;;;;;;;;;;5.10;97.40;;;;;;4272820;33;43871;-85
2022/04/01 09:55:04;;;;;;;;;;;5.10;97.50;;;;;;4272208;33;44271;-85
2022/04/01 09:57:33;;;;;;;;;;;5.00;97.40;;;;;;4271052;33;45728;-85
2022/04/01 10:00:00;;;;;;;;;;;5.00;97.30;;;;;;4272058;33;44608;-85
2022/04/01 10:02:29;;;;;;;;;;;5.00;97.70;;;;;;4259322;33;42987;-84
2022/04/01 10:04:58;;;;;;;;;;;5.00;97.30;;;;;;4272114;33;43506;-85
2022/04/01 10:07:25;;;;;;;;;;;5.00;97.40;;;;;;4259407;33;43405;-85
2022/04/01 10:09:53;;;;;;;;;;;5.00;97.30;;;;;;4272230;33;43526;-85
2022/04/01 10:12:31;;;;;;;;;;;4.90;97.20;;;;;;4272736;33;43535;-85
2022/04/01 10:14:59;;;;;;;;;;;4.90;97.20;;;;;;4259654;33;43048;-85
2022/04/01 10:17:47;;;;;;;;;;;4.90;97.20;;;;;;4272512;33;46148;-85
2022/04/01 10:20:15;;;;;;;;;;;4.90;97.30;;;;;;4272366;33;42675;-85
2022/04/01 10:22:43;;;;;;;;;;;4.90;97.40;;;;;;4272280;33;44245;-85
2022/04/01 10:25:18;;;;;;;;;;;4.90;97.30;;;;;;4272128;33;44077;-85
2022/04/01 10:27:51;;;;;;;;;;;4.90;97.30;;;;;;4271993;33;43875;-85
2022/04/01 10:30:20;;;;;;;;;;;4.90;97.30;;;;;;4272054;33;44110;-85
2022/04/01 10:32:47;;;;;;;;;;;4.80;97.30;;;;;;4259109;33;45727;-85
2022/04/01 10:35:21;;;;;;;;;;;4.80;97.40;;;;;;4259406;33;44049;-85
2022/04/01 10:38:13;;;;;;;;;;;4.80;97.20;;;;;;4259732;33;45147;-85
2022/04/01 10:40:42;;;;;;;;;;;4.80;97.40;;;;;;4272310;33;42940;-86
2022/04/01 10:43:10;;;;;;;;;;;4.90;97.30;;;;;;4272797;33;43204;-85
2022/04/01 10:45:38;;;;;;;;;;;4.80;97.30;;;;;;4262010;33;43899;-85
2022/04/01 10:54:12;;;;;;;;;;;4.90;97.40;;;;;;4274916;33;42964;-86
2022/04/01 10:56:41;;;;;;;;;;;4.90;97.20;;;;;;4274863;33;42628;-86
2022/04/01 10:59:08;;;;;;;;;;;4.90;97.20;;;;;;4262120;33;42964;-86
2022/04/01 11:01:37;;;;;;;;;;;4.90;97.20;;;;;;4261880;33;43911;-85
2022/04/01 11:04:08;;;;;;;;;;;4.90;97.10;;;;;;4274371;33;44100;-86
2022/04/01 11:06:54;;;;;;;;;;;4.80;96.90;;;;;;4261902;33;42771;-85
2022/04/01 11:09:33;;;;;;;;;;;4.80;96.90;;;;;;4262082;33;44263;-85
2022/04/01 11:12:32;;;;;;;;;;;4.70;96.90;;;;;;4262314;33;43218;-85
2022/04/01 11:15:07;;;;;;;;;;;4.70;97.00;;;;;;4261901;33;42928;-85
2022/04/01 11:17:39;;;;;;;;;;;4.80;97.10;;;;;;4261922;33;44721;-86
2022/04/01 11:20:12;;;;;;;;;;;4.70;96.90;;;;;;4275340;33;21779;-86
2022/04/01 11:22:40;;;;;;;;;;;4.70;96.90;;;;;;4273924;33;45322;-86
2022/04/01 11:25:10;;;;;;;;;;;4.80;96.90;;;;;;4274534;33;43200;-86
2022/04/01 11:27:42;;;;;;;;;;;4.70;96.80;;;;;;4274053;33;44334;-86
2022/04/01 11:30:13;;;;;;;;;;;4.70;96.90;;;;;;4274403;33;44363;-86
2022/04/01 11:32:41;;;;;;;;;;;4.70;96.90;;;;;;4274286;33;46123;-85
2022/04/01 11:35:10;;;;;;;;;;;4.70;96.90;;;;;;4261952;33;44194;-85
2022/04/01 11:37:41;;;;;;;;;;;4.70;96.90;;;;;;4274230;33;43056;-86
2022/04/01 11:40:13;;;;;;;;;;;4.80;96.90;;;;;;4261557;33;42936;-85
2022/04/01 11:42:50;;;;;;;;;;;4.70;96.70;;;;;;4274432;33;43876;-86
2022/04/01 11:45:18;;;;;;;;;;;4.70;96.70;;;;;;4274289;33;42259;-85
2022/04/01 11:47:45;;;;;;;;;;;4.70;96.80;;;;;;4273855;33;43945;-86
2022/04/01 11:50:14;;;;;;;;;;;4.70;96.80;;;;;;4261938;33;20011;-86
2022/04/01 11:52:42;;;;;;;;;;;4.70;96.70;;;;;;4261370;33;44242;-85
2022/04/01 11:55:11;;;;;;;;;;;4.70;96.70;;;;;;4273801;33;44104;-85
2022/04/01 11:57:38;;;;;;;;;;;4.70;96.60;;;;;;4273990;33;44965;-85
2022/04/01 12:00:10;;;;;;;;;;;4.60;96.50;;;;;;4273799;33;42803;-85
2022/04/01 12:02:37;;;;;;;;;;;4.60;96.50;;;;;;4273993;33;45340;-86
2022/04/01 12:05:05;;;;;;;;;;;4.60;96.50;;;;;;4261072;33;43228;-86
2022/04/01 12:10:18;;;;;;;;;;;4.60;96.20;;;;;;4273866;33;42937;-85
2022/04/01 12:12:59;;;;;;;;;;;4.60;96.40;;;;;;4273438;33;44121;-86
2022/04/01 12:15:39;;;;;;;;;;;4.60;96.40;;;;;;4261013;33;44698;-86
2022/04/01 12:18:09;;;;;;;;;;;4.50;96.20;;;;;;4273890;33;44770;-85
2022/04/01 12:20:40;;;;;;;;;;;4.50;96.20;;;;;;4261556;33;20033;-86
2022/04/01 12:23:14;;;;;;;;;;;4.50;96.60;;;;;;4273811;33;44416;-86
2022/04/01 12:25:42;;;;;;;;;;;4.50;96.20;;;;;;4260894;33;43120;-86
2022/04/01 12:28:11;;;;;;;;;;;4.50;96.20;;;;;;4261002;33;44872;-86
2022/04/01 12:30:52;;;;;;;;;;;4.50;96.40;;;;;;4260991;33;44179;-85
2022/04/01 12:33:21;;;;;;;;;;;4.60;96.40;;;;;;4261081;33;43107;-86
2022/04/01 12:35:54;;;;;;;;;;;4.60;96.40;;;;;;4260946;33;44306;-86
2022/04/01 12:38:22;;;;;;;;;;;4.60;96.30;;;;;;4260574;33;42333;-86
2022/04/01 12:40:51;;;;;;;;;;;4.60;96.50;;;;;;4273263;33;43071;-86
2022/04/01 12:43:28;;;;;;;;;;;4.60;96.40;;;;;;4260735;33;43493;-86
2022/04/01 12:45:56;;;;;;;;;;;4.60;96.40;;;;;;4273346;33;43179;-86
2022/04/01 12:48:24;;;;;;;;;;;4.60;96.40;;;;;;4260246;33;43245;-86
2022/04/01 12:50:52;;;;;;;;;;;4.60;96.50;;;;;;4273750;33;20063;-86
2022/04/01 12:53:19;;;;;;;;;;;4.60;96.50;;;;;;4260264;33;43853;-86
2022/04/01 12:55:48;;;;;;;;;;;4.60;96.50;;;;;;4260481;33;44006;-85
2022/04/01 12:58:16;;;;;;;;;;;4.70;96.40;;;;;;4272166;33;43470;-85
2022/04/01 13:00:43;;;;;;;;;;;4.70;96.40;;;;;;4273241;33;44244;-85
2022/04/01 13:03:12;;;;;;;;;;;4.60;96.30;;;;;;4260224;33;44763;-86
2022/04/01 13:05:40;;;;;;;;;;;4.60;96.30;;;;;;4259612;33;43048;-85
2022/04/01 13:08:12;;;;;;;;;;;4.60;96.30;;;;;;4260286;33;42517;-86
2022/04/01 13:10:42;;;;;;;;;;;4.60;96.30;;;;;;4273047;33;43597;-85
2022/04/01 13:13:17;;;;;;;;;;;4.60;96.30;;;;;;4260386;33;43310;-85
2022/04/01 13:15:49;;;;;;;;;;;4.60;96.30;;;;;;4260002;33;43040;-85
2022/04/01 13:18:27;;;;;;;;;;;4.60;96.40;;;;;;4272895;33;43808;-85
2022/04/01 13:20:54;;;;;;;;;;;4.60;96.30;;;;;;4273498;33;23440;-85
2022/04/01 13:23:22;;;;;;;;;;;4.60;96.40;;;;;;4272857;33;44114;-86
2022/04/01 13:25:52;;;;;;;;;;;4.60;96.40;;;;;;4272568;33;42970;-86
2022/04/01 13:28:22;;;;;;;;;;;4.60;96.50;;;;;;4260155;33;42645;-85
2022/04/01 13:30:49;;;;;;;;;;;4.60;96.40;;;;;;4271377;33;43537;-86
2022/04/01 13:33:25;;;;;;;;;;;4.60;96.30;;;;;;4262523;33;43275;-85
2022/04/01 13:35:52;;;;;;;;;;;4.60;96.20;;;;;;4261360;33;44134;-85
2022/04/01 13:38:20;;;;;;;;;;;4.60;96.20;;;;;;4271620;33;43060;-86
2022/04/01 13:40:48;;;;;;;;;;;4.50;96.00;;;;;;4259766;33;43773;-85
2022/04/01 13:43:15;;;;;;;;;;;4.50;96.10;;;;;;4260147;33;43563;-85
2022/04/01 13:45:46;;;;;;;;;;;4.50;96.00;;;;;;4271569;33;43480;-86
2022/04/01 13:48:15;;;;;;;;;;;4.50;96.00;;;;;;4272714;33;43347;-86
2022/04/01 13:50:42;;;;;;;;;;;4.50;95.90;;;;;;4272564;33;45465;-85
2022/04/01 13:53:11;;;;;;;;;;;4.40;95.90;;;;;;4272469;33;44258;-85
2022/04/01 13:55:39;;;;;;;;;;;4.50;96.00;;;;;;4272407;33;43994;-85
2022/04/01 13:58:06;;;;;;;;;;;4.50;96.00;;;;;;4272601;33;43041;-86
2022/04/01 14:00:38;;;;;;;;;;;4.50;95.90;;;;;;4259427;33;44011;-86
2022/04/01 14:03:07;;;;;;;;;;;4.50;95.90;;;;;;4272207;33;43161;-85
2022/04/01 14:05:35;;;;;;;;;;;4.50;96.00;;;;;;4260021;33;45617;-86
2022/04/01 14:08:02;;;;;;;;;;;4.50;96.00;;;;;;4271158;33;42462;-86
2022/04/01 14:10:29;;;;;;;;;;;4.50;96.10;;;;;;4259468;33;42884;-85
2022/04/01 14:12:56;;;;;;;;;;;4.50;96.10;;;;;;4272533;33;45708;-86
2022/04/01 14:15:23;;;;;;;;;;;4.40;96.00;;;;;;4259953;33;44003;-86
2022/04/01 14:17:50;;;;;;;;;;;4.40;96.00;;;;;;4261287;33;43260;-86
2022/04/01 14:20:17;;;;;;;;;;;4.40;96.00;;;;;;4275431;33;43982;-85
2022/04/01 14:22:48;;;;;;;;;;;4.40;96.10;;;;;;4262701;33;45835;-86
2022/04/01 14:25:20;;;;;;;;;;;4.40;96.20;;;;;;4263185;33;43474;-86
2022/04/01 14:27:47;;;;;;;;;;;4.40;96.10;;;;;;4262800;33;43199;-85
2022/04/01 14:32:49;;;;;;;;;;;4.40;96.00;;;;;;4275255;33;44093;-86
2022/04/01 14:35:16;;;;;;;;;;;4.40;96.00;;;;;;4262026;33;43374;-85
2022/04/01 14:37:46;;;;;;;;;;;4.40;96.10;;;;;;4262280;33;43916;-85
2022/04/01 14:40:14;;;;;;;;;;;4.40;96.10;;;;;;4262108;33;44672;-85
2022/04/01 14:42:45;;;;;;;;;;;4.40;96.10;;;;;;4275070;33;44622;-85
2022/04/01 14:45:13;;;;;;;;;;;4.40;96.10;;;;;;4262242;33;44606;-85
2022/04/01 14:47:43;;;;;;;;;;;4.40;96.20;;;;;;4262030;33;44066;-85
2022/04/01 14:50:11;;;;;;;;;;;4.40;96.20;;;;;;4274829;33;44190;-86
2022/04/01 14:52:38;;;;;;;;;;;4.40;96.10;;;;;;4262256;33;43822;-86
2022/04/01 14:55:08;;;;;;;;;;;4.40;96.20;;;;;;4262192;33;43342;-85
2022/04/01 14:57:37;;;;;;;;;;;4.40;96.10;;;;;;4261662;33;42757;-85
2022/04/01 15:00:06;;;;;;;;;;;4.40;96.10;;;;;;4261954;33;44248;-85
2022/04/01 15:02:35;;;;;;;;;;;4.40;96.20;;;;;;4250069;33;43668;-85